Time;durP1;ratioP1;P1;durP2;ratioP2;P2;SDS_P1;SDS_P2;PMS_P1;PMS_P2;Temp;Humidity;BMP_temperature;BMP_pressure;BME280_temperature;BME280_humidity;BME280_pressure;Samples;Min_cycle;Max_cycle;Signal;HPM_P1;HPM_P2
2022/05/10 00:00:32;;;;;;;;;;;;;;;21.42;49.39;101495.72;7288926;19;152009;-60
2022/05/10 00:03:00;;;;;;;;;;;;;;;21.42;49.75;101492.09;7287577;19;153669;-59
2022/05/10 00:05:34;;;;;;;;;;;;;;;21.43;49.25;101503.03;7287453;19;151951;-60
2022/05/10 00:08:02;;;;;;;;;;;;;;;21.45;49.22;101494.28;7287610;19;152736;-59
2022/05/10 00:10:29;;;;;;;;;;;;;;;21.45;49.79;101492.31;7286513;19;154152;-59
2022/05/10 00:12:56;;;;;;;;;;;;;;;21.45;49.80;101483.88;7296519;19;152154;-58
2022/05/10 00:15:23;;;;;;;;;;;;;;;21.44;49.53;101482.19;7286964;19;154054;-59
2022/05/10 00:17:50;;;;;;;;;;;;;;;21.43;49.58;101488.13;7290120;19;151719;-59
2022/05/10 00:20:19;;;;;;;;;;;;;;;21.43;49.68;101474.09;7289790;19;152652;-59
2022/05/10 00:22:45;;;;;;;;;;;;;;;21.43;49.47;101474.91;7289422;19;153368;-60
2022/05/10 00:25:14;;;;;;;;;;;;;;;21.42;49.72;101478.88;7290648;19;151825;-60
2022/05/10 00:27:41;;;;;;;;;;;;;;;21.45;49.74;101472.63;7287226;19;152847;-59
2022/05/10 00:30:08;;;;;;;;;;;;;;;21.45;49.50;101469.81;7288526;19;154051;-58
2022/05/10 00:32:36;;;;;;;;;;;;;;;21.44;49.37;101464.50;7290160;19;151631;-58
2022/05/10 00:35:05;;;;;;;;;;;;;;;21.45;49.79;101468.97;7293893;19;153722;-59
2022/05/10 00:37:32;;;;;;;;;;;;;;;21.44;49.52;101462.50;7289653;19;151870;-60
2022/05/10 00:39:58;;;;;;;;;;;;;;;21.44;49.51;101458.91;7287480;19;152418;-59
2022/05/10 00:42:28;;;;;;;;;;;;;;;21.44;49.88;101467.31;7286533;19;154280;-59
2022/05/10 00:45:00;;;;;;;;;;;;;;;21.45;49.70;101452.94;7289528;19;152162;-59
2022/05/10 00:47:37;;;;;;;;;;;;;;;21.46;49.86;101462.22;7288036;19;152550;-59
2022/05/10 00:50:09;;;;;;;;;;;;;;;21.47;49.97;101444.22;7287653;19;154291;-59
2022/05/10 00:52:39;;;;;;;;;;;;;;;21.44;49.46;101445.66;7287665;19;152200;-59
2022/05/10 00:55:15;;;;;;;;;;;;;;;21.46;49.73;101445.34;7286219;19;153736;-59
2022/05/10 00:57:44;;;;;;;;;;;;;;;21.43;49.79;101449.63;7295158;19;154375;-59
2022/05/10 01:00:11;;;;;;;;;;;;;;;21.46;49.48;101437.75;7285635;19;152401;-59
2022/05/10 01:02:48;;;;;;;;;;;;;;;21.45;49.95;101441.69;7287255;19;154119;-59
2022/05/10 01:05:19;;;;;;;;;;;;;;;21.45;50.02;101438.06;7286415;19;151923;-59
2022/05/10 01:07:52;;;;;;;;;;;;;;;21.45;50.18;101436.06;7286973;19;153092;-59
2022/05/10 01:10:27;;;;;;;;;;;;;;;21.45;50.42;101430.47;7285349;19;153567;-59
2022/05/10 01:13:00;;;;;;;;;;;;;;;21.47;50.49;101424.53;7289707;19;151443;-59
2022/05/10 01:15:27;;;;;;;;;;;;;;;21.46;50.11;101418.06;7289048;19;153027;-59
2022/05/10 01:17:56;;;;;;;;;;;;;;;21.47;50.29;101414.13;7295156;19;153620;-59
2022/05/10 01:20:28;;;;;;;;;;;;;;;21.46;50.45;101411.63;7286245;19;152586;-59
2022/05/10 01:23:03;;;;;;;;;;;;;;;21.53;50.74;101420.53;7285091;19;153561;-60
2022/05/10 01:25:40;;;;;;;;;;;;;;;21.50;50.63;101415.50;7286451;19;151873;-59
2022/05/10 01:28:10;;;;;;;;;;;;;;;21.49;50.84;101416.63;7287361;19;152729;-59
2022/05/10 01:30:37;;;;;;;;;;;;;;;21.50;51.00;101416.31;7283780;19;152759;-59
2022/05/10 01:35:52;;;;;;;;;;;;;;;21.47;51.30;101408.50;7285323;19;153749;-59
2022/05/10 01:38:29;;;;;;;;;;;;;;;21.49;51.42;101406.22;7287506;19;154298;-59
2022/05/10 01:41:02;;;;;;;;;;;;;;;21.49;51.33;101399.75;7294336;19;152267;-59
2022/05/10 01:43:36;;;;;;;;;;;;;;;21.51;51.18;101400.31;7286500;19;154033;-59
2022/05/10 01:46:08;;;;;;;;;;;;;;;21.50;51.19;101385.41;7286083;19;152112;-60
2022/05/10 01:48:37;;;;;;;;;;;;;;;21.51;50.97;101389.88;7283231;19;152551;-59
2022/05/10 01:51:12;;;;;;;;;;;;;;;21.51;51.05;101375.00;7286212;19;154380;-58
2022/05/10 01:53:40;;;;;;;;;;;;;;;21.51;51.24;101370.22;7285527;19;151819;-59
2022/05/10 01:56:16;;;;;;;;;;;;;;;21.48;51.06;101353.97;7286268;19;152912;-58
2022/05/10 01:58:44;;;;;;;;;;;;;;;21.49;51.03;101349.16;7284316;19;153254;-59
2022/05/10 02:01:20;;;;;;;;;;;;;;;21.49;51.25;101347.16;7287772;19;151677;-58
2022/05/10 02:03:47;;;;;;;;;;;;;;;21.49;51.45;101344.38;7293803;19;153212;-58
2022/05/10 02:06:24;;;;;;;;;;;;;;;21.47;51.19;101345.81;7284859;19;151738;-58
2022/05/10 02:08:55;;;;;;;;;;;;;;;21.48;51.63;101337.09;7284414;19;152655;-58
2022/05/10 02:11:25;;;;;;;;;;;;;;;21.49;51.76;101330.31;7286076;19;152368;-58
2022/05/10 02:14:02;;;;;;;;;;;;;;;21.49;51.68;101333.13;7286661;19;152102;-59
2022/05/10 02:16:35;;;;;;;;;;;;;;;21.52;51.25;101326.06;7283493;19;152417;-59
2022/05/10 02:19:07;;;;;;;;;;;;;;;21.49;51.73;101324.69;7283974;19;154563;-59
2022/05/10 02:21:38;;;;;;;;;;;;;;;21.48;51.61;101323.03;7284092;19;151619;-59
2022/05/10 02:24:06;;;;;;;;;;;;;;;21.49;51.57;101323.84;7284561;19;151518;-59
2022/05/10 02:26:37;;;;;;;;;;;;;;;21.51;51.62;101318.75;7291760;19;153991;-59
2022/05/10 02:29:14;;;;;;;;;;;;;;;21.51;51.65;101311.16;7283031;19;153415;-58
2022/05/10 02:34:22;;;;;;;;;;;;;;;21.48;51.71;101317.41;7286568;19;151643;-61
2022/05/10 02:36:49;;;;;;;;;;;;;;;21.49;51.83;101313.44;7285536;19;152489;-59
2022/05/10 02:39:16;;;;;;;;;;;;;;;21.51;51.41;101311.16;7284427;19;154081;-59
2022/05/10 02:41:42;;;;;;;;;;;;;;;21.54;51.72;101315.31;7287194;19;152063;-60
2022/05/10 02:44:09;;;;;;;;;;;;;;;21.51;51.72;101308.34;7286128;19;153636;-59
2022/05/10 02:46:36;;;;;;;;;;;;;;;21.50;51.37;101314.28;7283756;19;154016;-60
2022/05/10 02:49:09;;;;;;;;;;;;;;;21.49;51.36;101319.06;7292818;19;151711;-60
2022/05/10 02:51:36;;;;;;;;;;;;;;;21.52;51.56;101317.63;7286236;19;153957;-59
2022/05/10 02:54:03;;;;;;;;;;;;;;;21.51;51.54;101316.78;7283611;19;153817;-59
2022/05/10 02:56:31;;;;;;;;;;;;;;;21.51;51.12;101321.56;7286601;19;152966;-59
2022/05/10 02:58:59;;;;;;;;;;;;;;;21.52;51.69;101312.84;7284850;19;153221;-59
2022/05/10 03:01:33;;;;;;;;;;;;;;;21.51;51.10;101315.94;7285832;19;151970;-59
2022/05/10 03:04:01;;;;;;;;;;;;;;;21.50;51.40;101320.72;7285994;19;153500;-58
2022/05/10 03:06:28;;;;;;;;;;;;;;;21.49;51.30;101321.88;7284848;19;153468;-59
2022/05/10 03:08:57;;;;;;;;;;;;;;;21.48;51.51;101310.94;7283993;19;151583;-59
2022/05/10 03:11:24;;;;;;;;;;;;;;;21.49;51.23;101307.81;7291012;19;152882;-60
2022/05/10 03:13:52;;;;;;;;;;;;;;;21.49;51.51;101307.81;7279185;19;151965;-59
2022/05/10 03:16:20;;;;;;;;;;;;;;;21.51;51.63;101304.69;7285284;19;153355;-60
2022/05/10 03:18:47;;;;;;;;;;;;;;;21.50;51.14;101294.59;7282463;19;153623;-59
2022/05/10 03:21:19;;;;;;;;;;;;;;;21.49;51.54;101295.72;7286355;19;152010;-59
2022/05/10 03:23:46;;;;;;;;;;;;;;;21.50;51.28;101289.81;7283252;19;153413;-59
2022/05/10 03:26:15;;;;;;;;;;;;;;;21.51;51.17;101294.28;7283758;19;154772;-59
2022/05/10 03:28:42;;;;;;;;;;;;;;;21.56;50.86;101285.78;7286843;19;152504;-59
2022/05/10 03:31:11;;;;;;;;;;;;;;;21.52;51.00;101283.88;7298274;19;153055;-58
2022/05/10 03:33:38;;;;;;;;;;;;;;;21.51;51.01;101279.41;7288651;19;151913;-59
2022/05/10 03:36:06;;;;;;;;;;;;;;;21.48;50.99;101269.63;7289951;19;152572;-58
2022/05/10 03:38:33;;;;;;;;;;;;;;;21.49;51.11;101273.22;7286972;19;154167;-58
2022/05/10 03:41:00;;;;;;;;;;;;;;;21.51;50.75;101277.44;7289536;19;151948;-58
2022/05/10 03:43:27;;;;;;;;;;;;;;;21.48;50.75;101260.34;7290264;19;153329;-58
2022/05/10 03:45:54;;;;;;;;;;;;;;;21.48;51.08;101258.38;7289464;19;153472;-58
2022/05/10 03:48:22;;;;;;;;;;;;;;;21.48;51.29;101264.00;7291117;19;151523;-58
2022/05/10 03:50:49;;;;;;;;;;;;;;;21.47;50.93;101279.19;7287521;19;153570;-58
2022/05/10 03:53:15;;;;;;;;;;;;;;;21.48;50.81;101272.44;7295599;19;154174;-59
2022/05/10 03:55:42;;;;;;;;;;;;;;;21.46;50.78;101269.06;7288601;19;152684;-59
2022/05/10 03:58:10;;;;;;;;;;;;;;;21.51;51.19;101262.53;7290100;19;153470;-59
2022/05/10 04:00:37;;;;;;;;;;;;;;;21.49;50.73;101276.03;7289888;19;151805;-59
2022/05/10 04:03:04;;;;;;;;;;;;;;;21.47;50.87;101265.13;7290558;19;153608;-60
2022/05/10 04:05:31;;;;;;;;;;;;;;;21.46;50.78;101262.63;7288678;19;153809;-59
2022/05/10 04:07:58;;;;;;;;;;;;;;;21.48;50.81;101265.97;7291087;19;151849;-60
2022/05/10 04:10:25;;;;;;;;;;;;;;;21.44;50.36;101270.53;7288546;19;152754;-60
2022/05/10 04:12:52;;;;;;;;;;;;;;;21.44;50.85;101274.16;7286695;19;154605;-59
2022/05/10 04:15:20;;;;;;;;;;;;;;;21.46;50.78;101273.84;7298809;19;151940;-60
2022/05/10 04:17:47;;;;;;;;;;;;;;;21.42;50.56;101268.03;7287255;19;154338;-59
2022/05/10 04:20:14;;;;;;;;;;;;;;;21.46;50.57;101273.84;7290488;19;151456;-60
2022/05/10 04:22:41;;;;;;;;;;;;;;;21.41;50.44;101263.53;7288313;19;152682;-60
2022/05/10 04:25:14;;;;;;;;;;;;;;;21.43;50.87;101268.88;7289084;19;153517;-60
2022/05/10 04:27:41;;;;;;;;;;;;;;;21.43;50.32;101269.69;7289085;19;151889;-60
2022/05/10 04:30:08;;;;;;;;;;;;;;;21.42;50.71;101276.47;7287915;19;153489;-59
2022/05/10 04:32:38;;;;;;;;;;;;;;;21.44;50.26;101276.97;7286286;19;154203;-60
2022/05/10 04:35:05;;;;;;;;;;;;;;;21.41;50.41;101271.13;7289438;19;151788;-59
2022/05/10 04:37:33;;;;;;;;;;;;;;;21.43;50.29;101269.69;7296517;19;152612;-59
2022/05/10 04:42:30;;;;;;;;;;;;;;;21.46;50.25;101252.22;7290191;19;153358;-59
2022/05/10 04:44:59;;;;;;;;;;;;;;;21.43;50.58;101257.63;7285852;19;153519;-60
2022/05/10 04:47:26;;;;;;;;;;;;;;;21.41;50.09;101249.47;7290294;19;151712;-60
2022/05/10 04:49:53;;;;;;;;;;;;;;;21.45;50.45;101261.78;7287315;19;152594;-59
2022/05/10 04:52:20;;;;;;;;;;;;;;;21.41;50.28;101243.03;7289301;19;153514;-59
2022/05/10 04:54:47;;;;;;;;;;;;;;;21.41;50.53;101265.50;7285820;19;152579;-58
2022/05/10 04:57:14;;;;;;;;;;;;;;;21.42;50.40;101251.16;7289171;19;152750;-59
2022/05/10 04:59:41;;;;;;;;;;;;;;;21.45;50.20;101252.50;7294412;19;154279;-59
2022/05/10 05:02:09;;;;;;;;;;;;;;;21.46;50.08;101252.22;7290987;19;152783;-59
2022/05/10 05:04:36;;;;;;;;;;;;;;;21.41;50.07;101260.72;7285564;19;153304;-60
2022/05/10 05:07:03;;;;;;;;;;;;;;;21.41;49.64;101263.53;7287324;19;151752;-60
2022/05/10 05:09:31;;;;;;;;;;;;;;;21.39;50.15;101259.38;7286380;19;153146;-60
2022/05/10 05:11:58;;;;;;;;;;;;;;;21.40;50.25;101263.84;7286592;19;153397;-59
2022/05/10 05:14:25;;;;;;;;;;;;;;;21.37;50.04;101262.47;7287720;19;152263;-59
2022/05/10 05:16:54;;;;;;;;;;;;;;;21.35;49.88;101266.75;7289722;19;153643;-59
2022/05/10 05:19:21;;;;;;;;;;;;;;;21.36;49.82;101266.44;7285791;19;153331;-59
2022/05/10 05:21:48;;;;;;;;;;;;;;;21.36;49.77;101283.28;7295991;19;151525;-59
2022/05/10 05:24:15;;;;;;;;;;;;;;;21.37;49.78;101268.09;7286069;19;153597;-60
2022/05/10 05:26:43;;;;;;;;;;;;;;;21.35;49.64;101273.19;7287576;19;151919;-60
2022/05/10 05:29:10;;;;;;;;;;;;;;;21.34;49.75;101282.78;7286443;19;154655;-61
2022/05/10 05:31:37;;;;;;;;;;;;;;;21.36;49.87;101272.06;7287419;19;153968;-60
2022/05/10 05:34:04;;;;;;;;;;;;;;;21.35;49.59;101273.19;7288226;19;151870;-59
2022/05/10 05:36:31;;;;;;;;;;;;;;;21.33;49.75;101280.25;7286440;19;152803;-59
2022/05/10 05:38:58;;;;;;;;;;;;;;;21.35;49.70;101281.63;7285638;19;153319;-59
2022/05/10 05:41:25;;;;;;;;;;;;;;;21.34;49.71;101288.41;7293154;19;152409;-60
2022/05/10 05:43:52;;;;;;;;;;;;;;;21.33;49.73;101291.50;7286140;19;153866;-59
2022/05/10 05:46:19;;;;;;;;;;;;;;;21.31;49.55;101289.00;7288586;19;152075;-60
2022/05/10 05:48:47;;;;;;;;;;;;;;;21.30;50.01;101290.97;7287590;19;152696;-59
2022/05/10 05:51:14;;;;;;;;;;;;;;;21.32;49.60;101299.09;7283573;19;153714;-59
2022/05/10 05:53:41;;;;;;;;;;;;;;;21.30;49.91;101301.41;7286359;19;151898;-59
2022/05/10 05:56:10;;;;;;;;;;;;;;;21.37;49.71;101296.22;7285924;19;153460;-60
2022/05/10 05:58:38;;;;;;;;;;;;;;;21.36;49.94;101291.72;7284716;19;153309;-60
2022/05/10 06:01:08;;;;;;;;;;;;;;;21.39;50.45;101301.53;7283803;19;151989;-59
2022/05/10 06:03:35;;;;;;;;;;;;;;;21.39;50.43;101293.09;7294502;19;152684;-58
2022/05/10 06:06:02;;;;;;;;;;;;;;;21.42;50.45;101290.50;7286427;19;151656;-59
2022/05/10 06:08:29;;;;;;;;;;;;;;;21.47;51.37;101273.56;7286954;19;152528;-59
2022/05/10 06:10:57;;;;;;;;;;;;;;;21.53;51.50;101296.81;7283139;19;153543;-59
2022/05/10 06:13:24;;;;;;;;;;;;;;;21.58;50.95;101294.72;7287597;19;151910;-59
2022/05/10 06:15:51;;;;;;;;;;;;;;;21.70;51.30;101299.88;7286555;19;152580;-60
2022/05/10 06:18:18;;;;;;;;;;;;;;;21.78;51.08;101295.53;7285967;19;154147;-59
2022/05/10 06:20:46;;;;;;;;;;;;;;;21.84;49.70;101289.50;7283593;19;151638;-59
2022/05/10 06:23:13;;;;;;;;;;;;;;;21.88;49.03;101289.72;7287313;19;152218;-60
2022/05/10 06:25:40;;;;;;;;;;;;;;;21.92;48.26;101293.56;7292464;19;154371;-59
2022/05/10 06:28:07;;;;;;;;;;;;;;;21.94;47.98;101288.53;7287062;19;153458;-60
2022/05/10 06:30:34;;;;;;;;;;;;;;;21.98;47.48;101300.81;7283899;19;154018;-59
2022/05/10 06:33:01;;;;;;;;;;;;;;;21.94;48.09;101305.41;7284080;19;152154;-60
2022/05/10 06:35:29;;;;;;;;;;;;;;;21.84;47.84;101305.56;7285651;19;153957;-60
2022/05/10 06:40:26;;;;;;;;;;;;;;;21.97;47.18;101299.16;7285350;19;152213;-61
2022/05/10 06:43:02;;;;;;;;;;;;;;;22.00;46.88;101292.88;7286042;19;152760;-61
2022/05/10 06:45:30;;;;;;;;;;;;;;;22.03;47.02;101295.91;7283531;19;153941;-60
2022/05/10 06:47:57;;;;;;;;;;;;;;;22.05;46.88;101298.44;7292909;19;151520;-61
2022/05/10 06:50:25;;;;;;;;;;;;;;;22.08;47.21;101307.06;7283417;19;153414;-61
2022/05/10 06:52:54;;;;;;;;;;;;;;;22.09;46.84;101302.28;7285136;19;151942;-61
2022/05/10 06:55:23;;;;;;;;;;;;;;;22.13;46.82;101300.50;7279885;19;153432;-60
2022/05/10 06:57:52;;;;;;;;;;;;;;;22.13;46.48;101309.78;7283264;19;152393;-60
2022/05/10 07:00:21;;;;;;;;;;;;;;;22.14;46.57;101300.22;7283831;19;151904;-60
2022/05/10 07:02:49;;;;;;;;;;;;;;;22.16;46.88;101297.09;7279768;19;152519;-60
2022/05/10 07:05:17;;;;;;;;;;;;;;;22.19;46.56;101302.09;7280223;19;153855;-61
2022/05/10 07:07:45;;;;;;;;;;;;;;;22.17;46.52;101293.13;7285081;19;152152;-59
2022/05/10 07:10:13;;;;;;;;;;;;;;;22.17;46.86;101301.56;7291034;19;153835;-61
2022/05/10 07:12:41;;;;;;;;;;;;;;;22.20;46.85;101311.38;7284602;19;151778;-61
2022/05/10 07:15:11;;;;;;;;;;;;;;;22.20;46.75;101300.13;7283240;19;153455;-61
2022/05/10 07:17:39;;;;;;;;;;;;;;;22.19;46.63;101304.91;7282154;19;152263;-60
2022/05/10 07:20:10;;;;;;;;;;;;;;;22.27;46.63;101300.53;7284413;19;151846;-62
2022/05/10 07:22:41;;;;;;;;;;;;;;;22.28;46.93;101303.03;7282718;19;152194;-60
2022/05/10 07:25:18;;;;;;;;;;;;;;;22.30;47.11;101291.47;7283179;19;152794;-60
2022/05/10 07:27:48;;;;;;;;;;;;;;;22.34;47.04;101300.97;7282603;19;152075;-59
2022/05/10 07:30:23;;;;;;;;;;;;;;;22.28;47.19;101294.59;7281499;19;153349;-60
2022/05/10 07:32:58;;;;;;;;;;;;;;;22.24;47.33;101285.09;7289752;19;151725;-60
2022/05/10 07:37:56;;;;;;;;;;;;;;;22.21;47.20;101293.34;7281054;19;154166;-60
2022/05/10 07:40:24;;;;;;;;;;;;;;;22.21;47.09;101288.56;7281954;19;151870;-61
2022/05/10 07:42:52;;;;;;;;;;;;;;;22.20;47.30;101294.50;7260824;19;154564;-61
2022/05/10 07:45:21;;;;;;;;;;;;;;;22.19;46.95;101302.09;7272399;19;153957;-59
2022/05/10 07:47:53;;;;;;;;;;;;;;;22.20;46.91;101289.69;7282244;19;151870;-61
2022/05/10 07:50:20;;;;;;;;;;;;;;;22.19;46.96;101288.03;7282044;19;152909;-59
2022/05/10 07:52:47;;;;;;;;;;;;;;;22.17;46.94;101284.66;7289259;19;153529;-59
2022/05/10 07:55:14;;;;;;;;;;;;;;;22.13;47.03;101287.28;7280113;19;152799;-59
2022/05/10 07:57:44;;;;;;;;;;;;;;;22.10;46.91;101295.50;7278927;19;153476;-58
2022/05/10 08:00:13;;;;;;;;;;;;;;;22.12;46.80;101293.25;7281705;19;152123;-60
2022/05/10 08:02:43;;;;;;;;;;;;;;;22.09;47.20;101291.03;7280526;19;152998;-59
2022/05/10 08:05:17;;;;;;;;;;;;;;;22.08;47.25;101307.06;7279418;19;153872;-59
2022/05/10 08:07:44;;;;;;;;;;;;;;;22.04;46.94;101297.59;7282139;19;151909;-60
2022/05/10 08:10:11;;;;;;;;;;;;;;;22.04;47.16;101302.38;7281095;19;153502;-60
2022/05/10 08:12:38;;;;;;;;;;;;;;;22.01;47.05;101306.66;7279772;19;153461;-59
2022/05/10 08:15:08;;;;;;;;;;;;;;;22.01;47.37;101303.00;7291844;19;151764;-60
2022/05/10 08:17:52;;;;;;;;;;;;;;;22.02;47.41;101299.06;7283596;19;152856;-59
2022/05/10 08:20:30;;;;;;;;;;;;;;;21.99;47.11;101303.31;7287596;19;151911;-59
2022/05/10 08:23:17;;;;;;;;;;;;;;;21.98;47.26;101300.81;7288324;19;152578;-61
2022/05/10 08:25:44;;;;;;;;;;;;;;;21.96;47.14;101294.66;7285473;19;154386;-60
2022/05/10 08:28:13;;;;;;;;;;;;;;;21.94;47.39;101302.59;7286903;19;152322;-59
2022/05/10 08:30:42;;;;;;;;;;;;;;;21.93;47.61;101298.94;7285530;19;153944;-60
2022/05/10 08:33:12;;;;;;;;;;;;;;;21.90;47.71;101307.09;7285906;19;153468;-59
2022/05/10 08:35:41;;;;;;;;;;;;;;;21.91;47.33;101312.44;7287740;19;151854;-60
2022/05/10 08:38:08;;;;;;;;;;;;;;;21.86;47.75;101304.09;7292754;19;153751;-59
2022/05/10 08:40:38;;;;;;;;;;;;;;;21.87;47.38;101302.09;7287943;19;152099;-60
2022/05/10 08:43:09;;;;;;;;;;;;;;;21.84;47.69;101297.94;7288520;19;152695;-60
2022/05/10 08:45:40;;;;;;;;;;;;;;;21.83;47.88;101298.25;7280918;19;153700;-60
2022/05/10 08:48:07;;;;;;;;;;;;;;;21.81;48.05;101295.72;7287280;19;152078;-59
2022/05/10 08:50:36;;;;;;;;;;;;;;;21.82;47.89;101296.56;7286182;19;153464;-60
2022/05/10 08:53:05;;;;;;;;;;;;;;;21.80;47.60;101293.25;7286443;19;153687;-60
2022/05/10 08:55:36;;;;;;;;;;;;;;;21.79;48.05;101286.78;7286242;19;151639;-60
2022/05/10 08:58:11;;;;;;;;;;;;;;;21.79;47.62;101297.19;7286248;19;152356;-60
2022/05/10 09:00:44;;;;;;;;;;;;;;;21.78;48.10;101296.34;7292305;19;152564;-61
2022/05/10 09:03:18;;;;;;;;;;;;;;;21.74;48.18;101298.97;7288243;19;151514;-59
2022/05/10 09:05:46;;;;;;;;;;;;;;;21.76;47.82;101297.81;7287362;19;154097;-59
2022/05/10 09:08:21;;;;;;;;;;;;;;;21.73;48.04;101297.28;7286910;19;152033;-60
2022/05/10 09:10:49;;;;;;;;;;;;;;;21.72;47.91;101300.41;7285974;19;153467;-60
2022/05/10 09:13:17;;;;;;;;;;;;;;;21.72;47.85;101300.41;7286972;19;153386;-59
2022/05/10 09:15:47;;;;;;;;;;;;;;;21.72;48.32;101306.84;7285713;19;152868;-60
2022/05/10 09:18:18;;;;;;;;;;;;;;;21.71;47.96;101298.75;7287658;19;153748;-60
2022/05/10 09:20:48;;;;;;;;;;;;;;;21.69;48.30;101301.84;7284800;19;153449;-59
2022/05/10 09:23:24;;;;;;;;;;;;;;;21.71;48.30;101301.56;7293840;19;152070;-59
2022/05/10 09:25:54;;;;;;;;;;;;;;;21.69;48.35;101287.78;7285545;19;154142;-59
2022/05/10 09:28:30;;;;;;;;;;;;;;;21.66;48.16;101282.78;7288181;19;151763;-60
2022/05/10 09:36:03;;;;;;;;;;;;;;;21.65;48.38;101289.56;7286484;19;152502;-60
2022/05/10 09:38:35;;;;;;;;;;;;;;;21.64;48.43;101296.31;7287781;19;152539;-59
2022/05/10 09:41:22;;;;;;;;;;;;;;;21.62;48.73;101286.53;7285867;19;154270;-59
2022/05/10 09:43:50;;;;;;;;;;;;;;;21.61;48.51;101285.69;7292837;19;151579;-59
2022/05/10 09:46:18;;;;;;;;;;;;;;;21.60;48.78;101286.00;7286338;19;153261;-60
2022/05/10 09:48:49;;;;;;;;;;;;;;;21.59;48.69;101289.94;7285789;19;151785;-61
2022/05/10 09:51:24;;;;;;;;;;;;;;;21.58;48.94;101294.72;7284718;19;153685;-60
2022/05/10 09:53:52;;;;;;;;;;;;;;;21.58;48.86;101293.88;7284272;19;153758;-59
2022/05/10 09:56:22;;;;;;;;;;;;;;;21.56;48.93;101288.59;7285201;19;152017;-58
2022/05/10 09:58:53;;;;;;;;;;;;;;;21.58;48.79;101297.53;7286899;19;152416;-59
2022/05/10 10:01:36;;;;;;;;;;;;;;;21.55;49.01;101298.16;7285930;19;153762;-61
2022/05/10 10:04:06;;;;;;;;;;;;;;;21.54;49.16;101298.47;7284439;19;151710;-60
2022/05/10 10:06:33;;;;;;;;;;;;;;;21.50;49.72;101287.00;7293800;19;153949;-61
2022/05/10 10:09:00;;;;;;;;;;;;;;;21.49;49.33;101290.94;7285998;19;151747;-59
2022/05/10 10:11:32;;;;;;;;;;;;;;;21.51;49.69;101291.47;7283367;19;152732;-59
2022/05/10 10:16:35;;;;;;;;;;;;;;;21.49;49.60;101281.66;7285523;19;152432;-59
2022/05/10 10:19:05;;;;;;;;;;;;;;;21.48;49.92;101283.69;7284098;19;153508;-59
2022/05/10 10:21:33;;;;;;;;;;;;;;;21.49;50.22;101281.66;7285515;19;153935;-60
2022/05/10 10:24:01;;;;;;;;;;;;;;;21.48;49.94;101286.47;7286422;19;151954;-60
2022/05/10 10:26:31;;;;;;;;;;;;;;;21.49;50.00;101285.31;7283863;19;152804;-60
2022/05/10 10:29:05;;;;;;;;;;;;;;;21.51;50.20;101282.22;7290572;19;154470;-60
2022/05/10 10:31:38;;;;;;;;;;;;;;;21.46;50.30;101283.13;7282531;19;152822;-59
2022/05/10 10:34:13;;;;;;;;;;;;;;;21.45;50.41;101280.63;7282808;19;153951;-59
2022/05/10 10:36:43;;;;;;;;;;;;;;;21.45;50.69;101277.81;7283769;19;152135;-59
2022/05/10 10:39:12;;;;;;;;;;;;;;;21.41;50.43;101271.97;7283660;19;152930;-61
2022/05/10 10:41:46;;;;;;;;;;;;;;;21.44;50.29;101264.91;7283762;19;153580;-58
2022/05/10 10:44:16;;;;;;;;;;;;;;;21.43;50.96;101263.25;7283869;19;151605;-60
2022/05/10 10:46:47;;;;;;;;;;;;;;;21.43;50.69;101264.06;7286134;19;153427;-61
2022/05/10 10:49:18;;;;;;;;;;;;;;;21.41;50.74;101266.34;7282800;19;154322;-59
2022/05/10 10:51:45;;;;;;;;;;;;;;;21.40;50.79;101275.91;7292261;19;151678;-60
2022/05/10 10:54:17;;;;;;;;;;;;;;;21.40;50.53;101270.28;7282119;19;153274;-60
2022/05/10 10:56:47;;;;;;;;;;;;;;;21.40;50.67;101264.66;7284649;19;151792;-60
2022/05/10 10:59:41;;;;;;;;;;;;;;;21.41;50.83;101266.34;7283786;19;151751;-60
2022/05/10 11:02:11;;;;;;;;;;;;;;;21.42;50.68;101262.41;7281499;19;153911;-59
2022/05/10 11:04:42;;;;;;;;;;;;;;;21.38;50.69;101260.50;7285606;19;151742;-59
2022/05/10 11:07:18;;;;;;;;;;;;;;;21.42;50.79;101264.38;7283723;19;153283;-60
2022/05/10 11:09:45;;;;;;;;;;;;;;;21.40;50.59;101263.84;7282142;19;154111;-60
2022/05/10 11:12:15;;;;;;;;;;;;;;;21.40;50.65;101277.88;7282953;19;151775;-60
2022/05/10 11:14:46;;;;;;;;;;;;;;;21.36;50.99;101262.78;7288872;19;152091;-60
2022/05/10 11:17:20;;;;;;;;;;;;;;;21.39;50.80;101257.41;7283997;19;151966;-59
2022/05/10 11:19:50;;;;;;;;;;;;;;;21.35;51.07;101250.69;7284965;19;152802;-60
2022/05/10 11:22:18;;;;;;;;;;;;;;;21.33;50.71;101253.00;7283049;19;152042;-60
2022/05/10 11:24:49;;;;;;;;;;;;;;;21.37;50.54;101262.47;7282812;19;151656;-60
2022/05/10 11:27:20;;;;;;;;;;;;;;;21.35;50.69;101256.31;7285113;19;152658;-60
2022/05/10 11:29:54;;;;;;;;;;;;;;;21.38;51.03;101255.72;7281031;19;153741;-60
2022/05/10 11:32:28;;;;;;;;;;;;;;;21.33;51.17;101264.25;7283830;19;152114;-60
2022/05/10 11:35:02;;;;;;;;;;;;;;;21.30;51.13;101262.06;7284423;19;152828;-60
2022/05/10 11:37:36;;;;;;;;;;;;;;;21.33;50.80;101261.44;7290284;19;153995;-59
2022/05/10 11:40:04;;;;;;;;;;;;;;;21.35;50.99;101261.94;7281930;19;153461;-58
2022/05/10 11:42:44;;;;;;;;;;;;;;;21.27;51.00;101260.66;7282973;19;154528;-60
2022/05/10 11:45:16;;;;;;;;;;;;;;;21.29;51.20;101266.00;7283594;19;151788;-60
2022/05/10 11:47:43;;;;;;;;;;;;;;;21.29;50.93;101263.19;7283828;19;153597;-60
2022/05/10 11:50:17;;;;;;;;;;;;;;;21.30;50.97;101268.47;7288111;19;154308;-60
2022/05/10 11:52:47;;;;;;;;;;;;;;;21.29;51.18;101266.84;7288027;19;152336;-59
2022/05/10 11:55:17;;;;;;;;;;;;;;;21.27;51.35;101255.06;7289001;19;153433;-60
2022/05/10 11:57:44;;;;;;;;;;;;;;;21.31;51.16;101252.47;7296826;19;152287;-60
2022/05/10 12:00:15;;;;;;;;;;;;;;;21.30;50.97;101248.81;7289379;19;153871;-60
2022/05/10 12:02:46;;;;;;;;;;;;;;;21.30;51.40;101260.03;7289540;19;153059;-60
2022/05/10 12:05:19;;;;;;;;;;;;;;;21.29;51.10;101249.97;7289978;19;151765;-59
2022/05/10 12:07:47;;;;;;;;;;;;;;;21.27;51.06;101249.44;7287425;19;153453;-60
2022/05/10 12:10:18;;;;;;;;;;;;;;;21.28;51.48;101255.88;7288950;19;153754;-60
2022/05/10 12:12:46;;;;;;;;;;;;;;;21.27;51.46;101246.63;7288697;19;152096;-60
2022/05/10 12:23:00;;;;;;;;;;;;;;;21.28;51.34;101265.16;7285639;19;152383;-60
2022/05/10 12:25:30;;;;;;;;;;;;;;;21.32;50.94;101258.91;7289492;19;151538;-60
2022/05/10 12:28:00;;;;;;;;;;;;;;;21.28;51.16;101261.50;7289032;19;153275;-59
2022/05/10 12:30:30;;;;;;;;;;;;;;;21.33;51.15;101269.03;7289023;19;153370;-60
2022/05/10 12:33:19;;;;;;;;;;;;;;;21.34;51.09;101265.91;7287313;19;152049;-61
2022/05/10 12:35:49;;;;;;;;;;;;;;;21.32;51.49;101258.91;7286926;19;153333;-60
2022/05/10 12:38:22;;;;;;;;;;;;;;;21.34;51.78;101251.88;7287864;19;154125;-59
2022/05/10 12:41:04;;;;;;;;;;;;;;;21.32;51.42;101256.94;7288311;19;152293;-60
2022/05/10 12:43:35;;;;;;;;;;;;;;;21.33;51.35;101257.78;7293747;19;153649;-59
2022/05/10 12:46:10;;;;;;;;;;;;;;;21.35;51.00;101250.69;7288185;19;152010;-60
2022/05/10 12:48:40;;;;;;;;;;;;;;;21.35;50.85;101245.06;7286706;19;153516;-59
2022/05/10 12:51:10;;;;;;;;;;;;;;;21.36;50.99;101254.34;7287883;19;153299;-60
2022/05/10 12:53:41;;;;;;;;;;;;;;;21.37;50.70;101256.03;7286844;19;151694;-60
2022/05/10 12:56:16;;;;;;;;;;;;;;;21.40;50.69;101259.03;7288095;19;152651;-59
2022/05/10 12:58:46;;;;;;;;;;;;;;;21.42;50.15;101250.31;7285563;19;154149;-59
2022/05/10 13:01:21;;;;;;;;;;;;;;;21.38;50.03;101252.91;7284961;19;152737;-59
2022/05/10 13:03:56;;;;;;;;;;;;;;;21.40;49.25;101253.44;7286366;19;153584;-59
2022/05/10 13:06:41;;;;;;;;;;;;;;;21.38;49.11;101252.06;7295320;19;153966;-61
2022/05/10 13:09:12;;;;;;;;;;;;;;;21.39;48.56;101259.38;7287469;19;153594;-60